Pagrindinis puslapis
METAR-TAF:

METAR-TAF

Oro uostai :

Mikelis, Suomija

platuma: 61-44N, ilguma: 027-18E, Aukštis: 138 m

Dabartinis oras

Ataskaita buvo paskelbta 36 minutes, ne 22:50 UTC
Vėjas 1 kt iš Šiaurės Rytų
Temperatūra 17°C
Drėgmė 88%
Slėgis 1016 hPa
Matomumas 10 km arba daugiau
nėra debesų žemiau 1500 m ir nėra kamuolinių lietaus debesų

METAR: EFMI 022250Z AUTO 04001KT CAVOK 17/15 Q1016

Laikas: 02:26 (23:26 UTC)


TAF: trūkstamas

Orai ataskaitas ir orų prognozės (METAR, TAF).

turimą stotys yra geltonos ir raudonos taškus žemėlapyje.

Perkelti pele per norėdami pamatyti stoties vardą.

Tada spustelėkite, norėdami matyti oro stebėjimo ir prognozės.

Norėdami pakeisti žemėlapį: spustelėkite ant žalios mygtukų su juodo kryžiaus žemyn,; žalią mygtuką su brūkšneliu, jei norite nutolinti; arba žalių rodyklių gretimoms žemėlapius.


METAR-TAF: